sensor_id;sensor_type;location;lat;lon;timestamp;pressure;altitude;pressure_sealevel;temperature;humidity
75740;BME280;64357;51.344;6.550;2024-01-30T00:00:43;102255.38;;;8.76;100.00
75740;BME280;64357;51.344;6.550;2024-01-30T00:03:08;102242.94;;;8.72;100.00
75740;BME280;64357;51.344;6.550;2024-01-30T00:05:33;102260.47;;;8.76;100.00
75740;BME280;64357;51.344;6.550;2024-01-30T00:07:59;102232.50;;;8.63;100.00
75740;BME280;64357;51.344;6.550;2024-01-30T00:10:24;102251.72;;;8.74;100.00
75740;BME280;64357;51.344;6.550;2024-01-30T00:12:49;102245.50;;;8.72;100.00
75740;BME280;64357;51.344;6.550;2024-01-30T00:15:15;102241.53;;;8.74;100.00
75740;BME280;64357;51.344;6.550;2024-01-30T00:17:40;102235.44;;;8.66;100.00
75740;BME280;64357;51.344;6.550;2024-01-30T00:20:08;102246.09;;;8.76;100.00
75740;BME280;64357;51.344;6.550;2024-01-30T00:22:34;102243.13;;;8.73;100.00
75740;BME280;64357;51.344;6.550;2024-01-30T00:25:00;102244.47;;;8.77;100.00
75740;BME280;64357;51.344;6.550;2024-01-30T00:27:30;102250.66;;;8.79;100.00
75740;BME280;64357;51.344;6.550;2024-01-30T00:29:56;102243.75;;;8.78;100.00
75740;BME280;64357;51.344;6.550;2024-01-30T00:32:21;102241.31;;;8.72;100.00
75740;BME280;64357;51.344;6.550;2024-01-30T00:34:47;102221.97;;;8.67;100.00
75740;BME280;64357;51.344;6.550;2024-01-30T00:37:15;102239.00;;;8.74;100.00
75740;BME280;64357;51.344;6.550;2024-01-30T00:39:43;102222.19;;;8.69;100.00
75740;BME280;64357;51.344;6.550;2024-01-30T00:42:08;102229.31;;;8.71;100.00
75740;BME280;64357;51.344;6.550;2024-01-30T00:44:37;102229.41;;;8.66;100.00
75740;BME280;64357;51.344;6.550;2024-01-30T00:47:04;102236.34;;;8.67;100.00
75740;BME280;64357;51.344;6.550;2024-01-30T00:49:29;102239.81;;;8.67;100.00
75740;BME280;64357;51.344;6.550;2024-01-30T00:51:59;102228.44;;;8.58;100.00
75740;BME280;64357;51.344;6.550;2024-01-30T00:54:25;102234.13;;;8.63;100.00
75740;BME280;64357;51.344;6.550;2024-01-30T00:56:50;102222.44;;;8.58;100.00
75740;BME280;64357;51.344;6.550;2024-01-30T00:59:17;102232.63;;;8.58;100.00
75740;BME280;64357;51.344;6.550;2024-01-30T01:01:43;102227.34;;;8.56;100.00
75740;BME280;64357;51.344;6.550;2024-01-30T01:04:11;102255.94;;;8.61;100.00
75740;BME280;64357;51.344;6.550;2024-01-30T01:06:36;102226.94;;;8.53;100.00
75740;BME280;64357;51.344;6.550;2024-01-30T01:09:01;102244.63;;;8.59;100.00
75740;BME280;64357;51.344;6.550;2024-01-30T01:11:27;102243.19;;;8.61;100.00
75740;BME280;64357;51.344;6.550;2024-01-30T01:13:53;102238.63;;;8.58;100.00
75740;BME280;64357;51.344;6.550;2024-01-30T01:16:18;102251.56;;;8.60;100.00
75740;BME280;64357;51.344;6.550;2024-01-30T01:18:43;102242.28;;;8.60;100.00
75740;BME280;64357;51.344;6.550;2024-01-30T01:21:09;102243.19;;;8.61;100.00
75740;BME280;64357;51.344;6.550;2024-01-30T01:23:34;102238.03;;;8.53;100.00
75740;BME280;64357;51.344;6.550;2024-01-30T01:25:59;102247.00;;;8.57;100.00
75740;BME280;64357;51.344;6.550;2024-01-30T01:28:26;102240.25;;;8.58;100.00
75740;BME280;64357;51.344;6.550;2024-01-30T01:30:53;102243.13;;;8.53;100.00
75740;BME280;64357;51.344;6.550;2024-01-30T01:33:26;102240.38;;;8.52;100.00
75740;BME280;64357;51.344;6.550;2024-01-30T01:35:56;102242.03;;;8.51;100.00
75740;BME280;64357;51.344;6.550;2024-01-30T01:38:22;102230.19;;;8.52;100.00
75740;BME280;64357;51.344;6.550;2024-01-30T01:40:47;102229.41;;;8.46;100.00
75740;BME280;64357;51.344;6.550;2024-01-30T01:43:16;102231.94;;;8.46;100.00
75740;BME280;64357;51.344;6.550;2024-01-30T01:45:41;102238.34;;;8.49;100.00
75740;BME280;64357;51.344;6.550;2024-01-30T01:48:07;102224.44;;;8.40;100.00
75740;BME280;64357;51.344;6.550;2024-01-30T01:50:36;102236.13;;;8.45;100.00
75740;BME280;64357;51.344;6.550;2024-01-30T01:53:01;102236.31;;;8.47;100.00
75740;BME280;64357;51.344;6.550;2024-01-30T01:55:30;102239.72;;;8.40;100.00
75740;BME280;64357;51.344;6.550;2024-01-30T01:57:57;102229.00;;;8.43;100.00
75740;BME280;64357;51.344;6.550;2024-01-30T02:00:25;102222.78;;;8.41;100.00
75740;BME280;64357;51.344;6.550;2024-01-30T02:02:52;102216.38;;;8.37;100.00
75740;BME280;64357;51.344;6.550;2024-01-30T02:05:19;102227.47;;;8.38;100.00
75740;BME280;64357;51.344;6.550;2024-01-30T02:07:45;102204.56;;;8.25;100.00
75740;BME280;64357;51.344;6.550;2024-01-30T02:10:10;102213.41;;;8.34;100.00
75740;BME280;64357;51.344;6.550;2024-01-30T02:12:38;102218.72;;;8.36;100.00
75740;BME280;64357;51.344;6.550;2024-01-30T02:15:06;102206.50;;;8.33;100.00
75740;BME280;64357;51.344;6.550;2024-01-30T02:17:33;102208.63;;;8.30;100.00
75740;BME280;64357;51.344;6.550;2024-01-30T02:19:59;102210.47;;;8.31;100.00
75740;BME280;64357;51.344;6.550;2024-01-30T02:22:28;102211.78;;;8.35;100.00
75740;BME280;64357;51.344;6.550;2024-01-30T02:24:54;102203.94;;;8.33;100.00
75740;BME280;64357;51.344;6.550;2024-01-30T02:27:19;102198.63;;;8.32;100.00
75740;BME280;64357;51.344;6.550;2024-01-30T02:29:45;102198.06;;;8.27;100.00
75740;BME280;64357;51.344;6.550;2024-01-30T02:32:12;102194.38;;;8.25;100.00
75740;BME280;64357;51.344;6.550;2024-01-30T02:34:38;102182.56;;;8.25;100.00
75740;BME280;64357;51.344;6.550;2024-01-30T02:37:03;102174.94;;;8.25;100.00
75740;BME280;64357;51.344;6.550;2024-01-30T02:39:30;102167.09;;;8.24;100.00
75740;BME280;64357;51.344;6.550;2024-01-30T02:41:57;102184.81;;;8.29;100.00
75740;BME280;64357;51.344;6.550;2024-01-30T02:44:22;102184.19;;;8.25;100.00
75740;BME280;64357;51.344;6.550;2024-01-30T02:46:48;102190.63;;;8.28;100.00
75740;BME280;64357;51.344;6.550;2024-01-30T02:49:13;102194.38;;;8.25;100.00
75740;BME280;64357;51.344;6.550;2024-01-30T02:51:38;102197.66;;;8.24;100.00
75740;BME280;64357;51.344;6.550;2024-01-30T02:54:04;102187.09;;;8.21;100.00
75740;BME280;64357;51.344;6.550;2024-01-30T02:56:29;102197.47;;;8.22;100.00
75740;BME280;64357;51.344;6.550;2024-01-30T02:58:54;102192.56;;;8.24;100.00
75740;BME280;64357;51.344;6.550;2024-01-30T03:01:20;102174.13;;;8.19;100.00
75740;BME280;64357;51.344;6.550;2024-01-30T03:03:47;102185.47;;;8.21;100.00
75740;BME280;64357;51.344;6.550;2024-01-30T03:06:13;102177.03;;;8.15;100.00
75740;BME280;64357;51.344;6.550;2024-01-30T03:08:40;102182.00;;;8.21;100.00
75740;BME280;64357;51.344;6.550;2024-01-30T03:11:07;102178.50;;;8.20;100.00
75740;BME280;64357;51.344;6.550;2024-01-30T03:13:33;102182.91;;;8.21;100.00
75740;BME280;64357;51.344;6.550;2024-01-30T03:15:58;102181.28;;;8.22;100.00
75740;BME280;64357;51.344;6.550;2024-01-30T03:18:23;102183.59;;;8.20;100.00
75740;BME280;64357;51.344;6.550;2024-01-30T03:20:49;102179.66;;;8.22;100.00
75740;BME280;64357;51.344;6.550;2024-01-30T03:23:16;102175.28;;;8.21;100.00
75740;BME280;64357;51.344;6.550;2024-01-30T03:25:42;102177.09;;;8.22;100.00
75740;BME280;64357;51.344;6.550;2024-01-30T03:28:07;102172.91;;;8.23;100.00
75740;BME280;64357;51.344;6.550;2024-01-30T03:30:34;102157.88;;;8.12;100.00
75740;BME280;64357;51.344;6.550;2024-01-30T03:32:59;102168.25;;;8.13;100.00
75740;BME280;64357;51.344;6.550;2024-01-30T03:35:27;102167.75;;;8.16;100.00
75740;BME280;64357;51.344;6.550;2024-01-30T03:37:55;102176.06;;;8.15;100.00
75740;BME280;64357;51.344;6.550;2024-01-30T03:40:21;102178.44;;;8.13;100.00
75740;BME280;64357;51.344;6.550;2024-01-30T03:42:46;102172.25;;;8.11;100.00
75740;BME280;64357;51.344;6.550;2024-01-30T03:45:14;102178.78;;;8.09;100.00
75740;BME280;64357;51.344;6.550;2024-01-30T03:47:39;102176.22;;;8.09;100.00
75740;BME280;64357;51.344;6.550;2024-01-30T03:50:05;102172.16;;;8.04;100.00
75740;BME280;64357;51.344;6.550;2024-01-30T03:52:33;102171.94;;;8.02;100.00
75740;BME280;64357;51.344;6.550;2024-01-30T03:54:58;102168.47;;;8.02;100.00
75740;BME280;64357;51.344;6.550;2024-01-30T03:57:25;102148.97;;;7.95;100.00
75740;BME280;64357;51.344;6.550;2024-01-30T03:59:51;102147.22;;;8.01;100.00
75740;BME280;64357;51.344;6.550;2024-01-30T04:02:16;102150.47;;;8.00;100.00
75740;BME280;64357;51.344;6.550;2024-01-30T04:04:47;102155.03;;;8.03;100.00
75740;BME280;64357;51.344;6.550;2024-01-30T04:07:13;102145.81;;;8.04;100.00
75740;BME280;64357;51.344;6.550;2024-01-30T04:09:38;102153.75;;;7.99;100.00
75740;BME280;64357;51.344;6.550;2024-01-30T04:12:04;102149.38;;;7.98;100.00
75740;BME280;64357;51.344;6.550;2024-01-30T04:14:32;102149.38;;;7.98;100.00
75740;BME280;64357;51.344;6.550;2024-01-30T04:16:57;102133.63;;;7.88;100.00
75740;BME280;64357;51.344;6.550;2024-01-30T04:19:25;102154.97;;;7.96;100.00
75740;BME280;64357;51.344;6.550;2024-01-30T04:21:50;102143.50;;;7.92;100.00
75740;BME280;64357;51.344;6.550;2024-01-30T04:24:18;102148.34;;;7.91;100.00
75740;BME280;64357;51.344;6.550;2024-01-30T04:26:43;102153.44;;;7.91;100.00
75740;BME280;64357;51.344;6.550;2024-01-30T04:29:09;102138.81;;;7.83;100.00
75740;BME280;64357;51.344;6.550;2024-01-30T04:31:36;102143.59;;;7.87;100.00
75740;BME280;64357;51.344;6.550;2024-01-30T04:34:04;102151.25;;;7.87;100.00
75740;BME280;64357;51.344;6.550;2024-01-30T04:36:29;102144.50;;;7.87;100.00
75740;BME280;64357;51.344;6.550;2024-01-30T04:38:54;102129.06;;;7.73;100.00
75740;BME280;64357;51.344;6.550;2024-01-30T04:41:20;102144.03;;;7.77;100.00
75740;BME280;64357;51.344;6.550;2024-01-30T04:43:47;102154.38;;;7.79;100.00
75740;BME280;64357;51.344;6.550;2024-01-30T04:46:13;102158.66;;;7.85;100.00
75740;BME280;64357;51.344;6.550;2024-01-30T04:48:38;102164.78;;;7.80;100.00
75740;BME280;64357;51.344;6.550;2024-01-30T04:51:06;102160.81;;;7.82;100.00
75740;BME280;64357;51.344;6.550;2024-01-30T04:53:33;102150.75;;;7.77;100.00
75740;BME280;64357;51.344;6.550;2024-01-30T04:55:59;102158.25;;;7.82;100.00
75740;BME280;64357;51.344;6.550;2024-01-30T04:58:24;102155.00;;;7.83;100.00
75740;BME280;64357;51.344;6.550;2024-01-30T05:00:49;102141.78;;;7.73;100.00
75740;BME280;64357;51.344;6.550;2024-01-30T05:03:19;102145.84;;;7.78;100.00
75740;BME280;64357;51.344;6.550;2024-01-30T05:05:47;102152.25;;;7.82;100.00
75740;BME280;64357;51.344;6.550;2024-01-30T05:08:13;102145.84;;;7.78;100.00
75740;BME280;64357;51.344;6.550;2024-01-30T05:10:38;102144.94;;;7.78;100.00
75740;BME280;64357;51.344;6.550;2024-01-30T05:13:03;102135.28;;;7.75;100.00
75740;BME280;64357;51.344;6.550;2024-01-30T05:15:29;102139.34;;;7.80;100.00
75740;BME280;64357;51.344;6.550;2024-01-30T05:17:54;102133.84;;;7.77;100.00
75740;BME280;64357;51.344;6.550;2024-01-30T05:20:20;102140.94;;;7.80;100.00
75740;BME280;64357;51.344;6.550;2024-01-30T05:22:46;102144.22;;;7.79;100.00
75740;BME280;64357;51.344;6.550;2024-01-30T05:25:12;102141.91;;;7.80;100.00
75740;BME280;64357;51.344;6.550;2024-01-30T05:27:40;102132.75;;;7.75;100.00
75740;BME280;64357;51.344;6.550;2024-01-30T05:30:06;102129.78;;;7.72;100.00
75740;BME280;64357;51.344;6.550;2024-01-30T05:32:32;102133.13;;;7.78;100.00
75740;BME280;64357;51.344;6.550;2024-01-30T05:34:57;102126.94;;;7.76;100.00
75740;BME280;64357;51.344;6.550;2024-01-30T05:37:22;102128.03;;;7.78;100.00
75740;BME280;64357;51.344;6.550;2024-01-30T05:39:48;102123.13;;;7.80;100.00
75740;BME280;64357;51.344;6.550;2024-01-30T05:42:15;102130.47;;;7.84;100.00
75740;BME280;64357;51.344;6.550;2024-01-30T05:44:42;102110.22;;;7.78;100.00
75740;BME280;64357;51.344;6.550;2024-01-30T05:47:07;102126.00;;;7.88;100.00
75740;BME280;64357;51.344;6.550;2024-01-30T05:49:35;102122.34;;;7.86;100.00
75740;BME280;64357;51.344;6.550;2024-01-30T05:52:03;102111.56;;;7.82;100.00
75740;BME280;64357;51.344;6.550;2024-01-30T05:54:28;102126.91;;;7.89;100.00
75740;BME280;64357;51.344;6.550;2024-01-30T05:56:54;102108.19;;;7.88;100.00
75740;BME280;64357;51.344;6.550;2024-01-30T05:59:19;102123.81;;;7.91;100.00
75740;BME280;64357;51.344;6.550;2024-01-30T06:01:46;102120.97;;;7.95;100.00
75740;BME280;64357;51.344;6.550;2024-01-30T06:04:14;102116.19;;;7.91;100.00
75740;BME280;64357;51.344;6.550;2024-01-30T06:06:39;102122.59;;;7.95;100.00
75740;BME280;64357;51.344;6.550;2024-01-30T06:09:05;102126.06;;;7.95;100.00
75740;BME280;64357;51.344;6.550;2024-01-30T06:11:33;102122.41;;;7.93;100.00
75740;BME280;64357;51.344;6.550;2024-01-30T06:13:58;102127.59;;;8.00;100.00
75740;BME280;64357;51.344;6.550;2024-01-30T06:16:26;102117.94;;;7.98;100.00
75740;BME280;64357;51.344;6.550;2024-01-30T06:18:55;102114.06;;;7.94;100.00
75740;BME280;64357;51.344;6.550;2024-01-30T06:21:20;102114.47;;;7.97;100.00
75740;BME280;64357;51.344;6.550;2024-01-30T06:23:46;102118.72;;;8.04;100.00
75740;BME280;64357;51.344;6.550;2024-01-30T06:26:13;102124.31;;;8.01;100.00
75740;BME280;64357;51.344;6.550;2024-01-30T06:28:41;102118.00;;;8.05;100.00
75740;BME280;64357;51.344;6.550;2024-01-30T06:31:07;102114.47;;;7.97;100.00
75740;BME280;64357;51.344;6.550;2024-01-30T06:33:32;102115.78;;;8.01;100.00
75740;BME280;64357;51.344;6.550;2024-01-30T06:35:57;102119.41;;;8.03;100.00
75740;BME280;64357;51.344;6.550;2024-01-30T06:38:23;102122.69;;;8.02;100.00
75740;BME280;64357;51.344;6.550;2024-01-30T06:40:48;102121.88;;;7.96;100.00
75740;BME280;64357;51.344;6.550;2024-01-30T06:43:18;102113.88;;;7.93;100.00
75740;BME280;64357;51.344;6.550;2024-01-30T06:45:43;102128.78;;;7.97;100.00
75740;BME280;64357;51.344;6.550;2024-01-30T06:48:09;102140.22;;;7.93;100.00
75740;BME280;64357;51.344;6.550;2024-01-30T06:50:34;102134.53;;;7.89;100.00
75740;BME280;64357;51.344;6.550;2024-01-30T06:53:00;102121.84;;;7.76;100.00
75740;BME280;64357;51.344;6.550;2024-01-30T06:55:25;102093.56;;;7.67;100.00
75740;BME280;64357;51.344;6.550;2024-01-30T06:57:51;102084.53;;;7.69;100.00
75740;BME280;64357;51.344;6.550;2024-01-30T07:00:16;102115.81;;;7.88;100.00
75740;BME280;64357;51.344;6.550;2024-01-30T07:02:47;102126.91;;;7.89;100.00
75740;BME280;64357;51.344;6.550;2024-01-30T07:05:12;102123.13;;;7.92;100.00
75740;BME280;64357;51.344;6.550;2024-01-30T07:07:40;102134.50;;;8.01;100.00
75740;BME280;64357;51.344;6.550;2024-01-30T07:10:06;102133.28;;;8.05;100.00
75740;BME280;64357;51.344;6.550;2024-01-30T07:12:31;102136.91;;;8.07;100.00
75740;BME280;64357;51.344;6.550;2024-01-30T07:14:59;102135.28;;;8.08;100.00
75740;BME280;64357;51.344;6.550;2024-01-30T07:17:24;102143.34;;;8.11;100.00
75740;BME280;64357;51.344;6.550;2024-01-30T07:19:50;102137.09;;;8.09;100.00
75740;BME280;64357;51.344;6.550;2024-01-30T07:22:15;102149.53;;;8.13;100.00
75740;BME280;64357;51.344;6.550;2024-01-30T07:24:44;102138.44;;;8.12;100.00
75740;BME280;64357;51.344;6.550;2024-01-30T07:27:10;102145.53;;;8.15;100.00
75740;BME280;64357;51.344;6.550;2024-01-30T07:29:35;102157.34;;;8.14;100.00
75740;BME280;64357;51.344;6.550;2024-01-30T07:32:01;102158.50;;;8.16;100.00
75740;BME280;64357;51.344;6.550;2024-01-30T07:34:32;102155.41;;;8.19;100.00
75740;BME280;64357;51.344;6.550;2024-01-30T07:36:57;102158.25;;;8.15;100.00
75740;BME280;64357;51.344;6.550;2024-01-30T07:39:23;102159.00;;;8.14;100.00
75740;BME280;64357;51.344;6.550;2024-01-30T07:41:48;102155.72;;;8.15;100.00
75740;BME280;64357;51.344;6.550;2024-01-30T07:44:13;102172.50;;;8.20;100.00
75740;BME280;64357;51.344;6.550;2024-01-30T07:46:39;102181.06;;;8.20;100.00
75740;BME280;64357;51.344;6.550;2024-01-30T07:49:07;102166.31;;;8.18;100.00
75740;BME280;64357;51.344;6.550;2024-01-30T07:51:32;102174.66;;;8.17;100.00
75740;BME280;64357;51.344;6.550;2024-01-30T07:53:58;102168.44;;;8.15;100.00
75740;BME280;64357;51.344;6.550;2024-01-30T07:56:24;102170.38;;;8.23;100.00
75740;BME280;64357;51.344;6.550;2024-01-30T07:58:53;102169.66;;;8.24;100.00
75740;BME280;64357;51.344;6.550;2024-01-30T08:01:18;102172.19;;;8.24;100.00
75740;BME280;64357;51.344;6.550;2024-01-30T08:03:43;102175.97;;;8.20;100.00
75740;BME280;64357;51.344;6.550;2024-01-30T08:06:09;102183.91;;;8.29;100.00
75740;BME280;64357;51.344;6.550;2024-01-30T08:08:35;102188.25;;;8.30;100.00
75740;BME280;64357;51.344;6.550;2024-01-30T08:11:00;102187.75;;;8.33;100.00
75740;BME280;64357;51.344;6.550;2024-01-30T08:13:25;102186.25;;;8.27;100.00
75740;BME280;64357;51.344;6.550;2024-01-30T08:15:51;102193.28;;;8.36;100.00
75740;BME280;64357;51.344;6.550;2024-01-30T08:18:16;102192.44;;;8.29;100.00
75740;BME280;64357;51.344;6.550;2024-01-30T08:20:46;102202.09;;;8.32;100.00
75740;BME280;64357;51.344;6.550;2024-01-30T08:23:14;102207.41;;;8.34;100.00
75740;BME280;64357;51.344;6.550;2024-01-30T08:25:39;102204.88;;;8.34;100.00
75740;BME280;64357;51.344;6.550;2024-01-30T08:28:05;102212.50;;;8.34;100.00
75740;BME280;64357;51.344;6.550;2024-01-30T08:30:33;102210.56;;;8.38;100.00
75740;BME280;64357;51.344;6.550;2024-01-30T08:32:58;102206.59;;;8.40;100.00
75740;BME280;64357;51.344;6.550;2024-01-30T08:35:26;102195.81;;;8.36;100.00
75740;BME280;64357;51.344;6.550;2024-01-30T08:37:51;102197.22;;;8.46;100.00
75740;BME280;64357;51.344;6.550;2024-01-30T08:40:17;102198.44;;;8.43;100.00
75740;BME280;64357;51.344;6.550;2024-01-30T08:42:44;102216.06;;;8.41;100.00
75740;BME280;64357;51.344;6.550;2024-01-30T08:45:12;102207.22;;;8.45;100.00
75740;BME280;64357;51.344;6.550;2024-01-30T08:47:37;102197.84;;;8.38;100.00
75740;BME280;64357;51.344;6.550;2024-01-30T08:50:05;102206.78;;;8.42;100.00
75740;BME280;64357;51.344;6.550;2024-01-30T08:52:34;102213.41;;;8.47;100.00
75740;BME280;64357;51.344;6.550;2024-01-30T08:55:02;102200.91;;;8.36;100.00
75740;BME280;64357;51.344;6.550;2024-01-30T08:57:28;102213.22;;;8.45;100.00
75740;BME280;64357;51.344;6.550;2024-01-30T08:59:54;102215.34;;;8.42;100.00
75740;BME280;64357;51.344;6.550;2024-01-30T09:02:46;102226.75;;;8.51;100.00
75740;BME280;64357;51.344;6.550;2024-01-30T09:05:12;102216.66;;;8.46;100.00
75740;BME280;64357;51.344;6.550;2024-01-30T09:12:08;102197.94;;;8.45;100.00
75740;BME280;64357;51.344;6.550;2024-01-30T09:15:27;102205.34;;;8.57;100.00
75740;BME280;64357;51.344;6.550;2024-01-30T09:17:53;102212.84;;;8.62;100.00
75740;BME280;64357;51.344;6.550;2024-01-30T09:20:19;102217.41;;;8.65;100.00
75740;BME280;64357;51.344;6.550;2024-01-30T09:22:48;102203.56;;;8.63;100.00
75740;BME280;64357;51.344;6.550;2024-01-30T09:25:14;102192.78;;;8.58;100.00
75740;BME280;64357;51.344;6.550;2024-01-30T09:27:48;102214.00;;;8.71;100.00
75740;BME280;64357;51.344;6.550;2024-01-30T09:30:34;102204.25;;;8.62;100.00
75740;BME280;64357;51.344;6.550;2024-01-30T09:33:09;102203.28;;;8.54;100.00
75740;BME280;64357;51.344;6.550;2024-01-30T09:35:37;102218.78;;;8.75;100.00
75740;BME280;64357;51.344;6.550;2024-01-30T09:38:02;102212.97;;;8.76;100.00
75740;BME280;64357;51.344;6.550;2024-01-30T09:40:28;102223.16;;;8.96;100.00
75740;BME280;64357;51.344;6.550;2024-01-30T09:42:56;102237.63;;;9.03;100.00
75740;BME280;64357;51.344;6.550;2024-01-30T09:45:25;102242.72;;;9.03;100.00
75740;BME280;64357;51.344;6.550;2024-01-30T09:47:51;102236.69;;;9.02;100.00
75740;BME280;64357;51.344;6.550;2024-01-30T09:50:20;102242.44;;;9.14;100.00
75740;BME280;64357;51.344;6.550;2024-01-30T09:52:46;102239.59;;;9.25;100.00
75740;BME280;64357;51.344;6.550;2024-01-30T09:55:15;102238.97;;;9.33;100.00
75740;BME280;64357;51.344;6.550;2024-01-30T09:57:50;102242.38;;;9.27;100.00
75740;BME280;64357;51.344;6.550;2024-01-30T10:00:35;102229.63;;;9.27;100.00
75740;BME280;64357;51.344;6.550;2024-01-30T10:06:14;102200.34;;;9.11;100.00
75740;BME280;64357;51.344;6.550;2024-01-30T10:14:28;102233.63;;;9.52;100.00
75740;BME280;64357;51.344;6.550;2024-01-30T10:16:53;102228.47;;;9.45;100.00
75740;BME280;64357;51.344;6.550;2024-01-30T10:19:18;102229.25;;;9.51;100.00
75740;BME280;64357;51.344;6.550;2024-01-30T10:21:46;102232.75;;;9.58;100.00
75740;BME280;64357;51.344;6.550;2024-01-30T10:24:14;102239.63;;;9.79;100.00
75740;BME280;64357;51.344;6.550;2024-01-30T10:26:45;102228.72;;;9.87;100.00
75740;BME280;64357;51.344;6.550;2024-01-30T10:29:12;102251.28;;;10.19;100.00
75740;BME280;64357;51.344;6.550;2024-01-30T10:31:37;102238.47;;;9.97;100.00
75740;BME280;64357;51.344;6.550;2024-01-30T10:34:03;102223.16;;;10.04;100.00
75740;BME280;64357;51.344;6.550;2024-01-30T10:36:29;102222.22;;;9.97;100.00
75740;BME280;64357;51.344;6.550;2024-01-30T10:38:59;102242.22;;;10.21;100.00
75740;BME280;64357;51.344;6.550;2024-01-30T10:41:31;102238.69;;;10.13;100.00
75740;BME280;64357;51.344;6.550;2024-01-30T10:44:02;102242.69;;;10.45;100.00
75740;BME280;64357;51.344;6.550;2024-01-30T10:46:37;102245.84;;;10.71;100.00
75740;BME280;64357;51.344;6.550;2024-01-30T10:49:06;102238.16;;;10.50;100.00
75740;BME280;64357;51.344;6.550;2024-01-30T10:51:32;102243.94;;;10.41;100.00
75740;BME280;64357;51.344;6.550;2024-01-30T10:54:00;102243.69;;;10.81;100.00
75740;BME280;64357;51.344;6.550;2024-01-30T10:56:29;102241.81;;;10.59;100.00
75740;BME280;64357;51.344;6.550;2024-01-30T10:58:59;102250.91;;;10.50;100.00
75740;BME280;64357;51.344;6.550;2024-01-30T11:01:25;102239.81;;;10.78;100.00
75740;BME280;64357;51.344;6.550;2024-01-30T11:03:53;102248.44;;;10.85;100.00
75740;BME280;64357;51.344;6.550;2024-01-30T11:06:22;102247.66;;;10.58;100.00
75740;BME280;64357;51.344;6.550;2024-01-30T11:09:03;102247.16;;;10.96;100.00
75740;BME280;64357;51.344;6.550;2024-01-30T11:11:29;102237.84;;;10.89;100.00
75740;BME280;64357;51.344;6.550;2024-01-30T11:14:03;102245.09;;;10.65;100.00
75740;BME280;64357;51.344;6.550;2024-01-30T11:16:32;102230.16;;;10.75;100.00
75740;BME280;64357;51.344;6.550;2024-01-30T11:19:00;102216.13;;;10.86;100.00
75740;BME280;64357;51.344;6.550;2024-01-30T11:21:25;102235.84;;;11.01;100.00
75740;BME280;64357;51.344;6.550;2024-01-30T11:23:52;102224.69;;;11.01;100.00
75740;BME280;64357;51.344;6.550;2024-01-30T11:26:27;102227.97;;;11.07;100.00
75740;BME280;64357;51.344;6.550;2024-01-30T11:28:52;102215.75;;;11.04;100.00
75740;BME280;64357;51.344;6.550;2024-01-30T11:31:21;102242.44;;;11.28;100.00
75740;BME280;64357;51.344;6.550;2024-01-30T11:33:52;102235.81;;;11.37;100.00
75740;BME280;64357;51.344;6.550;2024-01-30T11:36:25;102226.34;;;11.29;100.00
75740;BME280;64357;51.344;6.550;2024-01-30T11:38:51;102243.69;;;11.31;100.00
75740;BME280;64357;51.344;6.550;2024-01-30T11:41:19;102246.44;;;11.18;100.00
75740;BME280;64357;51.344;6.550;2024-01-30T11:43:54;102227.25;;;11.29;100.00
75740;BME280;64357;51.344;6.550;2024-01-30T11:46:24;102230.72;;;11.30;100.00
75740;BME280;64357;51.344;6.550;2024-01-30T11:48:50;102226.72;;;11.10;100.00
75740;BME280;64357;51.344;6.550;2024-01-30T11:51:19;102210.81;;;11.13;100.00
75740;BME280;64357;51.344;6.550;2024-01-30T11:53:49;102238.41;;;11.15;100.00
75740;BME280;64357;51.344;6.550;2024-01-30T11:56:17;102228.91;;;11.21;100.00
75740;BME280;64357;51.344;6.550;2024-01-30T11:58:45;102208.63;;;11.02;100.00
75740;BME280;64357;51.344;6.550;2024-01-30T12:01:11;102228.38;;;11.10;100.00
75740;BME280;64357;51.344;6.550;2024-01-30T12:03:36;102214.47;;;11.01;100.00
75740;BME280;64357;51.344;6.550;2024-01-30T12:06:04;102222.53;;;11.04;100.00
75740;BME280;64357;51.344;6.550;2024-01-30T12:08:30;102199.31;;;11.09;100.00
75740;BME280;64357;51.344;6.550;2024-01-30T12:10:56;102232.56;;;11.38;100.00
75740;BME280;64357;51.344;6.550;2024-01-30T12:13:23;102219.03;;;11.39;100.00
75740;BME280;64357;51.344;6.550;2024-01-30T12:15:49;102204.91;;;11.64;100.00
75740;BME280;64357;51.344;6.550;2024-01-30T12:18:18;102223.72;;;11.79;100.00
75740;BME280;64357;51.344;6.550;2024-01-30T12:20:56;102193.56;;;11.69;100.00
75740;BME280;64357;51.344;6.550;2024-01-30T12:23:22;102215.66;;;11.83;100.00
75740;BME280;64357;51.344;6.550;2024-01-30T12:25:51;102218.56;;;11.93;100.00
75740;BME280;64357;51.344;6.550;2024-01-30T12:39:24;102228.81;;;12.30;100.00
75740;BME280;64357;51.344;6.550;2024-01-30T12:41:51;102235.59;;;12.30;100.00
75740;BME280;64357;51.344;6.550;2024-01-30T12:44:19;102213.66;;;12.32;100.00
75740;BME280;64357;51.344;6.550;2024-01-30T12:47:03;102235.06;;;12.25;100.00
75740;BME280;64357;51.344;6.550;2024-01-30T12:49:28;102241.63;;;12.37;100.00
75740;BME280;64357;51.344;6.550;2024-01-30T12:51:56;102242.53;;;12.38;100.00
75740;BME280;64357;51.344;6.550;2024-01-30T12:54:22;102242.59;;;12.23;100.00
75740;BME280;64357;51.344;6.550;2024-01-30T12:56:48;102228.69;;;12.21;100.00
75740;BME280;64357;51.344;6.550;2024-01-30T12:59:13;102225.75;;;12.25;100.00
75740;BME280;64357;51.344;6.550;2024-01-30T13:01:39;102232.84;;;12.35;100.00
75740;BME280;64357;51.344;6.550;2024-01-30T13:04:04;102234.94;;;12.16;100.00
75740;BME280;64357;51.344;6.550;2024-01-30T13:06:30;102228.91;;;12.16;100.00
75740;BME280;64357;51.344;6.550;2024-01-30T13:08:55;102258.91;;;12.54;100.00
75740;BME280;64357;51.344;6.550;2024-01-30T13:11:20;102249.28;;;12.44;100.00